Home   Weather   High Springs   Past weeks
Flag for USA

Past Weather in High Springs, Florida, USA — January 2022

Currently: 63 °F. Clear. (Weather station: Gainesville Regional Airport, USA). See more current weather

January 2022 Weather in High Springs — Graph

°F

High & Low Weather Summary for January 2022

 TemperatureHumidityPressure
High83 °F (Jan 1, 2:53 pm)100% (Jan 1, 2:53 am)30.45 "Hg (Jan 1, 2:53 am)
Low23 °F (Jan 30, 6:53 am)18% (Jan 30, 1:53 pm)29.63 "Hg (Jan 16, 6:36 am)
Average54 °F76%30.13 "Hg
* Reported Jan 1 12:53 am — Jan 31 11:53 pm, High Springs. Weather by CustomWeather, © 2022

Note: Actual official high and low records may vary slightly from our data, if they occured in-between our weather recording intervals... More about our weather records

High Springs Weather History for January 1, 2022

Scroll right to see more
 ConditionsComfort  
Time TempWeatherWind HumidityBarometerVisibility
12:53 am
Sat, Jan 1
67 °FFog.5 mph97%30.09 "Hg5 mi
1:53 am67 °FFog.5 mph97%30.09 "Hg5 mi
2:53 am66 °FFog.3 mph100%30.08 "Hg4 mi
3:39 am66 °FFog.3 mph96%30.08 "Hg2 mi
4:11 am65 °FFog.No wind100%30.08 "Hg1 mi
4:53 am65 °FFog.No wind100%30.06 "Hg1 mi
5:21 am65 °FFog.No wind100%30.07 "Hg0 mi
5:53 am65 °FFog.No wind100%30.07 "Hg0 mi
6:53 am64 °FFog.3 mph100%30.07 "Hg0 mi
7:53 am63 °FFog.3 mph100%30.07 "Hg0 mi
8:19 am64 °FFog.5 mph100%30.09 "Hg0 mi
9:07 am65 °FFog.No wind100%30.11 "Hg2 mi
9:12 am65 °FFog.3 mph100%30.11 "Hg3 mi
9:30 am66 °FScattered clouds.5 mph96%30.12 "Hg8 mi
9:53 am69 °FSunny.7 mph84%30.11 "Hg10 mi
10:53 am75 °FSunny.8 mph71%30.11 "Hg10 mi
11:53 am79 °FSunny.13 mph62%30.08 "Hg10 mi
12:53 pm81 °FPartly sunny.N/A56%30.05 "Hg10 mi
1:53 pm82 °FScattered clouds.13 mph51%30.02 "Hg10 mi
2:53 pm83 °FPassing clouds.15 mph48%30.01 "Hg10 mi
3:53 pm81 °FSunny.13 mph49%30.00 "Hg10 mi
4:53 pm80 °FSunny.9 mph45%30.00 "Hg10 mi
5:53 pm75 °FClear.10 mph69%30.01 "Hg10 mi
6:53 pm73 °FClear.8 mph74%30.02 "Hg10 mi
7:53 pm71 °FClear.8 mph81%30.02 "Hg10 mi
8:53 pm70 °FClear.7 mph84%30.03 "Hg10 mi
9:53 pm69 °FClear.6 mph90%30.03 "Hg10 mi
10:53 pm68 °FClear.6 mph93%30.02 "Hg10 mi
11:53 pm68 °FClear.6 mph93%30.02 "Hg10 mi
Weather by CustomWeather, © 2022

See weather overview